sensor_id;sensor_type;location;lat;lon;timestamp;temperature;humidity
49861;DHT22;35761;48.826;9.238;2022-10-14T00:01:23;13.90;71.70
49861;DHT22;35761;48.826;9.238;2022-10-14T00:03:54;13.90;71.70
49861;DHT22;35761;48.826;9.238;2022-10-14T00:06:24;13.90;71.60
49861;DHT22;35761;48.826;9.238;2022-10-14T00:08:55;13.90;72.00
49861;DHT22;35761;48.826;9.238;2022-10-14T00:11:28;13.90;72.40
49861;DHT22;35761;48.826;9.238;2022-10-14T00:14:00;13.90;73.20
49861;DHT22;35761;48.826;9.238;2022-10-14T00:16:32;13.90;73.70
49861;DHT22;35761;48.826;9.238;2022-10-14T00:19:04;13.80;74.30
49861;DHT22;35761;48.826;9.238;2022-10-14T00:21:34;13.80;74.70
49861;DHT22;35761;48.826;9.238;2022-10-14T00:24:08;13.80;74.90
49861;DHT22;35761;48.826;9.238;2022-10-14T00:26:38;13.80;74.90
49861;DHT22;35761;48.826;9.238;2022-10-14T00:29:10;13.80;75.00
49861;DHT22;35761;48.826;9.238;2022-10-14T00:31:40;13.80;75.90
49861;DHT22;35761;48.826;9.238;2022-10-14T00:34:10;13.80;74.70
49861;DHT22;35761;48.826;9.238;2022-10-14T00:36:42;13.80;74.30
49861;DHT22;35761;48.826;9.238;2022-10-14T00:39:14;13.80;74.30
49861;DHT22;35761;48.826;9.238;2022-10-14T00:41:43;13.70;73.80
49861;DHT22;35761;48.826;9.238;2022-10-14T00:47:25;13.80;74.10
49861;DHT22;35761;48.826;9.238;2022-10-14T00:49:56;13.70;74.00
49861;DHT22;35761;48.826;9.238;2022-10-14T00:52:28;13.70;74.10
49861;DHT22;35761;48.826;9.238;2022-10-14T00:54:59;13.70;73.90
49861;DHT22;35761;48.826;9.238;2022-10-14T00:57:29;13.80;73.80
49861;DHT22;35761;48.826;9.238;2022-10-14T01:00:03;13.70;74.10
49861;DHT22;35761;48.826;9.238;2022-10-14T01:02:33;13.70;73.60
49861;DHT22;35761;48.826;9.238;2022-10-14T01:05:04;13.80;73.40
49861;DHT22;35761;48.826;9.238;2022-10-14T01:07:42;13.70;73.20
49861;DHT22;35761;48.826;9.238;2022-10-14T01:10:24;13.70;73.20
49861;DHT22;35761;48.826;9.238;2022-10-14T01:13:06;13.70;72.30
49861;DHT22;35761;48.826;9.238;2022-10-14T01:15:47;13.70;71.60
49861;DHT22;35761;48.826;9.238;2022-10-14T01:18:29;13.70;71.80
49861;DHT22;35761;48.826;9.238;2022-10-14T01:21:21;13.70;71.60
49861;DHT22;35761;48.826;9.238;2022-10-14T01:27:16;13.60;71.70
49861;DHT22;35761;48.826;9.238;2022-10-14T01:30:16;13.60;71.60
49861;DHT22;35761;48.826;9.238;2022-10-14T01:33:02;13.60;71.40
49861;DHT22;35761;48.826;9.238;2022-10-14T01:35:55;13.60;71.10
49861;DHT22;35761;48.826;9.238;2022-10-14T01:38:30;13.60;71.10
49861;DHT22;35761;48.826;9.238;2022-10-14T01:41:08;13.60;71.10
49861;DHT22;35761;48.826;9.238;2022-10-14T01:43:42;13.60;71.10
49861;DHT22;35761;48.826;9.238;2022-10-14T01:46:16;13.60;71.40
49861;DHT22;35761;48.826;9.238;2022-10-14T01:48:49;13.60;71.50
49861;DHT22;35761;48.826;9.238;2022-10-14T01:51:24;13.60;71.10
49861;DHT22;35761;48.826;9.238;2022-10-14T01:53:58;13.50;70.80
49861;DHT22;35761;48.826;9.238;2022-10-14T01:56:30;13.50;71.80
49861;DHT22;35761;48.826;9.238;2022-10-14T01:59:07;13.50;72.10
49861;DHT22;35761;48.826;9.238;2022-10-14T02:01:38;13.50;72.30
49861;DHT22;35761;48.826;9.238;2022-10-14T02:04:13;13.50;72.30
49861;DHT22;35761;48.826;9.238;2022-10-14T02:06:49;13.50;73.00
49861;DHT22;35761;48.826;9.238;2022-10-14T02:09:25;13.40;73.80
49861;DHT22;35761;48.826;9.238;2022-10-14T02:12:04;13.40;74.50
49861;DHT22;35761;48.826;9.238;2022-10-14T02:14:41;13.30;75.40
49861;DHT22;35761;48.826;9.238;2022-10-14T02:17:18;13.40;73.10
49861;DHT22;35761;48.826;9.238;2022-10-14T02:19:52;13.30;73.10
49861;DHT22;35761;48.826;9.238;2022-10-14T02:22:26;13.30;74.30
49861;DHT22;35761;48.826;9.238;2022-10-14T02:25:17;13.30;74.30
49861;DHT22;35761;48.826;9.238;2022-10-14T02:27:48;13.30;75.00
49861;DHT22;35761;48.826;9.238;2022-10-14T02:30:18;13.30;75.30
49861;DHT22;35761;48.826;9.238;2022-10-14T02:32:56;13.20;75.30
49861;DHT22;35761;48.826;9.238;2022-10-14T02:35:27;13.30;75.50
49861;DHT22;35761;48.826;9.238;2022-10-14T02:37:58;13.30;75.70
49861;DHT22;35761;48.826;9.238;2022-10-14T02:40:30;13.30;76.10
49861;DHT22;35761;48.826;9.238;2022-10-14T02:43:02;13.20;76.20
49861;DHT22;35761;48.826;9.238;2022-10-14T02:45:33;13.20;76.80
49861;DHT22;35761;48.826;9.238;2022-10-14T02:48:04;13.10;77.40
49861;DHT22;35761;48.826;9.238;2022-10-14T02:50:36;13.10;78.20
49861;DHT22;35761;48.826;9.238;2022-10-14T02:53:05;13.10;77.80
49861;DHT22;35761;48.826;9.238;2022-10-14T02:55:33;13.10;78.30
49861;DHT22;35761;48.826;9.238;2022-10-14T02:58:03;13.00;78.80
49861;DHT22;35761;48.826;9.238;2022-10-14T03:00:31;13.00;79.60
49861;DHT22;35761;48.826;9.238;2022-10-14T03:03:00;13.00;78.30
49861;DHT22;35761;48.826;9.238;2022-10-14T03:05:31;13.10;78.20
49861;DHT22;35761;48.826;9.238;2022-10-14T03:08:00;13.10;77.40
49861;DHT22;35761;48.826;9.238;2022-10-14T03:10:32;13.10;77.00
49861;DHT22;35761;48.826;9.238;2022-10-14T03:13:02;13.10;77.10
49861;DHT22;35761;48.826;9.238;2022-10-14T03:15:37;13.10;77.00
49861;DHT22;35761;48.826;9.238;2022-10-14T03:18:08;13.10;76.90
49861;DHT22;35761;48.826;9.238;2022-10-14T03:20:45;13.10;77.00
49861;DHT22;35761;48.826;9.238;2022-10-14T03:23:18;13.10;77.30
49861;DHT22;35761;48.826;9.238;2022-10-14T03:25:50;13.20;77.60
49861;DHT22;35761;48.826;9.238;2022-10-14T03:28:24;13.20;77.60
49861;DHT22;35761;48.826;9.238;2022-10-14T03:31:13;13.20;77.80
49861;DHT22;35761;48.826;9.238;2022-10-14T03:34:18;13.20;78.10
49861;DHT22;35761;48.826;9.238;2022-10-14T03:36:50;13.20;78.30
49861;DHT22;35761;48.826;9.238;2022-10-14T03:39:19;13.20;78.20
49861;DHT22;35761;48.826;9.238;2022-10-14T03:41:50;13.20;78.00
49861;DHT22;35761;48.826;9.238;2022-10-14T03:44:27;13.20;78.20
49861;DHT22;35761;48.826;9.238;2022-10-14T03:47:27;13.20;78.40
49861;DHT22;35761;48.826;9.238;2022-10-14T03:49:57;13.20;78.30
49861;DHT22;35761;48.826;9.238;2022-10-14T03:52:41;13.20;78.30
49861;DHT22;35761;48.826;9.238;2022-10-14T03:55:22;13.20;78.30
49861;DHT22;35761;48.826;9.238;2022-10-14T03:57:52;13.20;78.50
49861;DHT22;35761;48.826;9.238;2022-10-14T04:00:22;13.20;78.60
49861;DHT22;35761;48.826;9.238;2022-10-14T04:03:03;13.20;78.60
49861;DHT22;35761;48.826;9.238;2022-10-14T04:05:39;13.20;78.60
49861;DHT22;35761;48.826;9.238;2022-10-14T04:08:18;13.20;78.30
49861;DHT22;35761;48.826;9.238;2022-10-14T04:10:57;13.20;78.00
49861;DHT22;35761;48.826;9.238;2022-10-14T04:13:30;13.20;77.80
49861;DHT22;35761;48.826;9.238;2022-10-14T04:16:02;13.20;78.00
49861;DHT22;35761;48.826;9.238;2022-10-14T04:18:35;13.20;77.70
49861;DHT22;35761;48.826;9.238;2022-10-14T04:21:09;13.10;77.60
49861;DHT22;35761;48.826;9.238;2022-10-14T04:23:41;13.10;77.80
49861;DHT22;35761;48.826;9.238;2022-10-14T04:26:14;13.10;77.90
49861;DHT22;35761;48.826;9.238;2022-10-14T04:28:45;13.10;77.70
49861;DHT22;35761;48.826;9.238;2022-10-14T04:31:27;13.10;78.00
49861;DHT22;35761;48.826;9.238;2022-10-14T04:34:00;13.10;77.80
49861;DHT22;35761;48.826;9.238;2022-10-14T04:36:35;13.10;77.50
49861;DHT22;35761;48.826;9.238;2022-10-14T04:39:16;13.10;77.60
49861;DHT22;35761;48.826;9.238;2022-10-14T04:41:45;13.10;77.70
49861;DHT22;35761;48.826;9.238;2022-10-14T04:44:16;13.10;78.00
49861;DHT22;35761;48.826;9.238;2022-10-14T04:46:52;13.00;78.00
49861;DHT22;35761;48.826;9.238;2022-10-14T04:49:24;13.10;78.20
49861;DHT22;35761;48.826;9.238;2022-10-14T04:52:03;13.10;78.30
49861;DHT22;35761;48.826;9.238;2022-10-14T04:54:50;13.10;78.20
49861;DHT22;35761;48.826;9.238;2022-10-14T04:57:28;13.10;78.20
49861;DHT22;35761;48.826;9.238;2022-10-14T04:59:57;13.10;78.40
49861;DHT22;35761;48.826;9.238;2022-10-14T05:02:51;13.00;78.50
49861;DHT22;35761;48.826;9.238;2022-10-14T05:05:26;13.10;79.00
49861;DHT22;35761;48.826;9.238;2022-10-14T05:07:58;13.00;79.40
49861;DHT22;35761;48.826;9.238;2022-10-14T05:10:33;13.00;79.60
49861;DHT22;35761;48.826;9.238;2022-10-14T05:13:06;13.00;79.80
49861;DHT22;35761;48.826;9.238;2022-10-14T05:15:42;13.00;79.80
49861;DHT22;35761;48.826;9.238;2022-10-14T05:18:11;13.00;80.10
49861;DHT22;35761;48.826;9.238;2022-10-14T05:20:53;13.00;80.30
49861;DHT22;35761;48.826;9.238;2022-10-14T05:23:24;13.00;80.50
49861;DHT22;35761;48.826;9.238;2022-10-14T05:25:55;13.00;80.50
49861;DHT22;35761;48.826;9.238;2022-10-14T05:28:23;13.00;80.20
49861;DHT22;35761;48.826;9.238;2022-10-14T05:30:53;13.00;80.30
49861;DHT22;35761;48.826;9.238;2022-10-14T05:33:23;13.00;80.20
49861;DHT22;35761;48.826;9.238;2022-10-14T05:35:51;13.00;80.30
49861;DHT22;35761;48.826;9.238;2022-10-14T05:38:31;13.00;80.50
49861;DHT22;35761;48.826;9.238;2022-10-14T05:41:01;13.00;80.70
49861;DHT22;35761;48.826;9.238;2022-10-14T05:43:29;13.00;81.10
49861;DHT22;35761;48.826;9.238;2022-10-14T05:46:01;13.00;81.40
49861;DHT22;35761;48.826;9.238;2022-10-14T05:48:35;13.00;81.60
49861;DHT22;35761;48.826;9.238;2022-10-14T05:51:04;13.00;81.70
49861;DHT22;35761;48.826;9.238;2022-10-14T05:53:36;13.00;81.90
49861;DHT22;35761;48.826;9.238;2022-10-14T05:56:11;12.90;81.80
49861;DHT22;35761;48.826;9.238;2022-10-14T05:58:39;12.90;82.10
49861;DHT22;35761;48.826;9.238;2022-10-14T06:01:10;12.90;82.20
49861;DHT22;35761;48.826;9.238;2022-10-14T06:03:40;12.90;82.50
49861;DHT22;35761;48.826;9.238;2022-10-14T06:06:11;12.90;83.40
49861;DHT22;35761;48.826;9.238;2022-10-14T06:08:42;13.00;82.90
49861;DHT22;35761;48.826;9.238;2022-10-14T06:11:11;13.00;82.80
49861;DHT22;35761;48.826;9.238;2022-10-14T06:13:39;12.90;83.00
49861;DHT22;35761;48.826;9.238;2022-10-14T06:16:09;12.90;83.30
49861;DHT22;35761;48.826;9.238;2022-10-14T06:18:38;13.00;83.40
49861;DHT22;35761;48.826;9.238;2022-10-14T06:21:06;12.90;83.80
49861;DHT22;35761;48.826;9.238;2022-10-14T06:23:34;13.00;84.10
49861;DHT22;35761;48.826;9.238;2022-10-14T06:26:05;13.00;84.10
49861;DHT22;35761;48.826;9.238;2022-10-14T06:28:35;13.00;84.50
49861;DHT22;35761;48.826;9.238;2022-10-14T06:31:04;13.00;84.50
49861;DHT22;35761;48.826;9.238;2022-10-14T06:33:34;12.90;84.30
49861;DHT22;35761;48.826;9.238;2022-10-14T06:36:03;12.90;84.50
49861;DHT22;35761;48.826;9.238;2022-10-14T06:38:32;12.90;84.60
49861;DHT22;35761;48.826;9.238;2022-10-14T06:41:01;12.90;84.80
49861;DHT22;35761;48.826;9.238;2022-10-14T06:43:31;12.90;85.00
49861;DHT22;35761;48.826;9.238;2022-10-14T06:46:01;12.90;85.20
49861;DHT22;35761;48.826;9.238;2022-10-14T06:48:30;12.90;85.30
49861;DHT22;35761;48.826;9.238;2022-10-14T06:50:59;12.90;85.20
49861;DHT22;35761;48.826;9.238;2022-10-14T06:53:29;12.90;85.20
49861;DHT22;35761;48.826;9.238;2022-10-14T06:55:59;12.90;85.30
49861;DHT22;35761;48.826;9.238;2022-10-14T06:58:28;13.00;85.30
49861;DHT22;35761;48.826;9.238;2022-10-14T07:01:01;13.00;85.20
49861;DHT22;35761;48.826;9.238;2022-10-14T07:03:32;13.00;85.20
49861;DHT22;35761;48.826;9.238;2022-10-14T07:06:02;13.00;85.40
49861;DHT22;35761;48.826;9.238;2022-10-14T07:08:31;13.10;85.70
49861;DHT22;35761;48.826;9.238;2022-10-14T07:11:00;13.10;85.90
49861;DHT22;35761;48.826;9.238;2022-10-14T07:13:28;13.10;86.00
49861;DHT22;35761;48.826;9.238;2022-10-14T07:15:57;13.20;85.80
49861;DHT22;35761;48.826;9.238;2022-10-14T07:18:27;13.20;85.90
49861;DHT22;35761;48.826;9.238;2022-10-14T07:20:55;13.20;86.60
49861;DHT22;35761;48.826;9.238;2022-10-14T07:23:23;13.20;85.60
49861;DHT22;35761;48.826;9.238;2022-10-14T07:25:54;13.20;85.30
49861;DHT22;35761;48.826;9.238;2022-10-14T07:28:23;13.20;84.90
49861;DHT22;35761;48.826;9.238;2022-10-14T07:30:57;13.30;84.20
49861;DHT22;35761;48.826;9.238;2022-10-14T07:33:27;13.30;83.00
49861;DHT22;35761;48.826;9.238;2022-10-14T07:36:00;13.30;82.30
49861;DHT22;35761;48.826;9.238;2022-10-14T07:38:29;13.30;81.70
49861;DHT22;35761;48.826;9.238;2022-10-14T07:40:59;13.30;81.60
49861;DHT22;35761;48.826;9.238;2022-10-14T07:43:28;13.30;80.60
49861;DHT22;35761;48.826;9.238;2022-10-14T07:45:59;13.30;80.10
49861;DHT22;35761;48.826;9.238;2022-10-14T07:48:32;13.40;79.90
49861;DHT22;35761;48.826;9.238;2022-10-14T07:51:21;13.40;79.50
49861;DHT22;35761;48.826;9.238;2022-10-14T07:53:50;13.40;79.50
49861;DHT22;35761;48.826;9.238;2022-10-14T07:56:21;13.40;79.90
49861;DHT22;35761;48.826;9.238;2022-10-14T07:58:49;13.50;80.40
49861;DHT22;35761;48.826;9.238;2022-10-14T08:01:18;13.50;79.80
49861;DHT22;35761;48.826;9.238;2022-10-14T08:03:48;13.50;78.10
49861;DHT22;35761;48.826;9.238;2022-10-14T08:06:17;13.60;77.30
49861;DHT22;35761;48.826;9.238;2022-10-14T08:08:46;13.50;76.70
49861;DHT22;35761;48.826;9.238;2022-10-14T08:11:17;13.60;76.80
49861;DHT22;35761;48.826;9.238;2022-10-14T08:13:47;13.60;76.90
49861;DHT22;35761;48.826;9.238;2022-10-14T08:16:17;13.60;76.30
49861;DHT22;35761;48.826;9.238;2022-10-14T08:18:49;13.60;75.80
49861;DHT22;35761;48.826;9.238;2022-10-14T08:21:18;13.60;76.10
49861;DHT22;35761;48.826;9.238;2022-10-14T08:23:48;13.60;76.10
49861;DHT22;35761;48.826;9.238;2022-10-14T08:26:21;13.60;75.20
49861;DHT22;35761;48.826;9.238;2022-10-14T08:28:50;13.60;75.00
49861;DHT22;35761;48.826;9.238;2022-10-14T08:31:19;13.70;75.30
49861;DHT22;35761;48.826;9.238;2022-10-14T08:33:50;13.70;74.80
49861;DHT22;35761;48.826;9.238;2022-10-14T08:36:19;13.70;73.60
49861;DHT22;35761;48.826;9.238;2022-10-14T08:38:50;13.70;73.90
49861;DHT22;35761;48.826;9.238;2022-10-14T08:41:25;13.70;73.70
49861;DHT22;35761;48.826;9.238;2022-10-14T08:44:12;13.80;73.90
49861;DHT22;35761;48.826;9.238;2022-10-14T08:46:45;13.80;73.80
49861;DHT22;35761;48.826;9.238;2022-10-14T08:49:25;13.80;74.00
49861;DHT22;35761;48.826;9.238;2022-10-14T08:52:00;13.80;74.10
49861;DHT22;35761;48.826;9.238;2022-10-14T08:54:34;13.80;73.20
49861;DHT22;35761;48.826;9.238;2022-10-14T08:57:08;13.80;73.80
49861;DHT22;35761;48.826;9.238;2022-10-14T08:59:41;13.90;72.70
49861;DHT22;35761;48.826;9.238;2022-10-14T09:02:18;13.90;72.30
49861;DHT22;35761;48.826;9.238;2022-10-14T09:04:53;13.90;72.30
49861;DHT22;35761;48.826;9.238;2022-10-14T09:07:22;14.00;71.80
49861;DHT22;35761;48.826;9.238;2022-10-14T09:09:55;14.00;72.40
49861;DHT22;35761;48.826;9.238;2022-10-14T09:12:28;14.00;72.40
49861;DHT22;35761;48.826;9.238;2022-10-14T09:15:04;14.10;72.20
49861;DHT22;35761;48.826;9.238;2022-10-14T09:17:39;14.10;72.30
49861;DHT22;35761;48.826;9.238;2022-10-14T09:20:17;14.20;70.50
49861;DHT22;35761;48.826;9.238;2022-10-14T09:22:55;14.20;70.50
49861;DHT22;35761;48.826;9.238;2022-10-14T09:25:29;14.20;70.20
49861;DHT22;35761;48.826;9.238;2022-10-14T09:28:00;14.20;70.80
49861;DHT22;35761;48.826;9.238;2022-10-14T09:30:32;14.30;70.60
49861;DHT22;35761;48.826;9.238;2022-10-14T09:33:03;14.30;71.10
49861;DHT22;35761;48.826;9.238;2022-10-14T09:35:35;14.30;71.40
49861;DHT22;35761;48.826;9.238;2022-10-14T09:38:04;14.40;71.90
49861;DHT22;35761;48.826;9.238;2022-10-14T09:40:35;14.40;71.40
49861;DHT22;35761;48.826;9.238;2022-10-14T09:43:14;14.40;70.70
49861;DHT22;35761;48.826;9.238;2022-10-14T09:45:50;14.40;71.80
49861;DHT22;35761;48.826;9.238;2022-10-14T09:48:29;14.50;72.10
49861;DHT22;35761;48.826;9.238;2022-10-14T09:51:03;14.50;71.10
49861;DHT22;35761;48.826;9.238;2022-10-14T09:53:36;14.60;69.80
49861;DHT22;35761;48.826;9.238;2022-10-14T09:56:08;14.60;68.80
49861;DHT22;35761;48.826;9.238;2022-10-14T09:58:42;14.60;68.10
49861;DHT22;35761;48.826;9.238;2022-10-14T10:01:35;14.60;67.50
49861;DHT22;35761;48.826;9.238;2022-10-14T10:04:24;14.60;68.70
49861;DHT22;35761;48.826;9.238;2022-10-14T10:06:57;14.70;70.10
49861;DHT22;35761;48.826;9.238;2022-10-14T10:09:27;14.70;69.90
49861;DHT22;35761;48.826;9.238;2022-10-14T10:11:56;14.80;70.30
49861;DHT22;35761;48.826;9.238;2022-10-14T10:14:29;14.90;69.90
49861;DHT22;35761;48.826;9.238;2022-10-14T10:17:17;14.90;70.20
49861;DHT22;35761;48.826;9.238;2022-10-14T10:19:47;15.00;68.10
49861;DHT22;35761;48.826;9.238;2022-10-14T10:22:24;15.00;68.00
49861;DHT22;35761;48.826;9.238;2022-10-14T10:25:18;15.00;68.00
49861;DHT22;35761;48.826;9.238;2022-10-14T10:27:53;15.10;68.50
49861;DHT22;35761;48.826;9.238;2022-10-14T10:30:26;15.10;66.60
49861;DHT22;35761;48.826;9.238;2022-10-14T10:33:15;15.20;65.00
49861;DHT22;35761;48.826;9.238;2022-10-14T10:35:59;15.20;64.80
49861;DHT22;35761;48.826;9.238;2022-10-14T10:38:39;15.30;63.20
49861;DHT22;35761;48.826;9.238;2022-10-14T10:41:28;15.30;62.60
49861;DHT22;35761;48.826;9.238;2022-10-14T10:44:26;15.40;61.90
49861;DHT22;35761;48.826;9.238;2022-10-14T10:47:13;15.50;62.20
49861;DHT22;35761;48.826;9.238;2022-10-14T10:50:14;15.50;61.80
49861;DHT22;35761;48.826;9.238;2022-10-14T10:52:55;15.50;61.70
49861;DHT22;35761;48.826;9.238;2022-10-14T10:55:35;15.60;62.60
49861;DHT22;35761;48.826;9.238;2022-10-14T10:58:19;15.70;63.90
49861;DHT22;35761;48.826;9.238;2022-10-14T11:01:01;15.70;62.50
49861;DHT22;35761;48.826;9.238;2022-10-14T11:03:47;15.70;62.70
49861;DHT22;35761;48.826;9.238;2022-10-14T11:06:27;15.80;62.90
49861;DHT22;35761;48.826;9.238;2022-10-14T11:09:28;15.90;61.80
49861;DHT22;35761;48.826;9.238;2022-10-14T11:12:21;16.00;61.10
49861;DHT22;35761;48.826;9.238;2022-10-14T11:15:03;15.90;60.70
49861;DHT22;35761;48.826;9.238;2022-10-14T11:22:56;16.00;61.40
49861;DHT22;35761;48.826;9.238;2022-10-14T11:25:41;16.00;62.60
49861;DHT22;35761;48.826;9.238;2022-10-14T11:28:24;16.00;63.30
49861;DHT22;35761;48.826;9.238;2022-10-14T11:31:00;15.90;62.60
49861;DHT22;35761;48.826;9.238;2022-10-14T11:33:52;16.00;63.10
49861;DHT22;35761;48.826;9.238;2022-10-14T11:36:37;16.00;63.80
49861;DHT22;35761;48.826;9.238;2022-10-14T11:39:17;15.80;64.20
49861;DHT22;35761;48.826;9.238;2022-10-14T11:42:19;15.70;66.10
49861;DHT22;35761;48.826;9.238;2022-10-14T11:45:05;15.60;66.70
49861;DHT22;35761;48.826;9.238;2022-10-14T11:48:00;15.60;67.90
49861;DHT22;35761;48.826;9.238;2022-10-14T11:50:39;15.60;68.20
49861;DHT22;35761;48.826;9.238;2022-10-14T11:53:13;15.60;68.30
49861;DHT22;35761;48.826;9.238;2022-10-14T11:55:50;15.60;69.20
49861;DHT22;35761;48.826;9.238;2022-10-14T11:58:25;15.60;69.70
49861;DHT22;35761;48.826;9.238;2022-10-14T12:01:00;15.60;70.60
49861;DHT22;35761;48.826;9.238;2022-10-14T12:03:44;15.70;71.10
49861;DHT22;35761;48.826;9.238;2022-10-14T12:06:20;15.80;70.90
49861;DHT22;35761;48.826;9.238;2022-10-14T12:08:56;15.90;66.50
49861;DHT22;35761;48.826;9.238;2022-10-14T12:11:29;15.90;65.40
49861;DHT22;35761;48.826;9.238;2022-10-14T12:14:06;16.00;64.40
49861;DHT22;35761;48.826;9.238;2022-10-14T12:16:41;16.00;65.40
49861;DHT22;35761;48.826;9.238;2022-10-14T12:19:13;16.00;66.30
49861;DHT22;35761;48.826;9.238;2022-10-14T12:21:52;16.10;66.20
49861;DHT22;35761;48.826;9.238;2022-10-14T12:24:31;16.10;65.60
49861;DHT22;35761;48.826;9.238;2022-10-14T12:27:08;16.20;63.10
49861;DHT22;35761;48.826;9.238;2022-10-14T12:29:41;16.30;63.10
49861;DHT22;35761;48.826;9.238;2022-10-14T12:32:21;16.30;61.30
49861;DHT22;35761;48.826;9.238;2022-10-14T12:34:52;16.30;61.80
49861;DHT22;35761;48.826;9.238;2022-10-14T12:37:49;16.40;60.90
49861;DHT22;35761;48.826;9.238;2022-10-14T12:40:26;16.50;60.60
49861;DHT22;35761;48.826;9.238;2022-10-14T12:43:13;16.60;59.00
49861;DHT22;35761;48.826;9.238;2022-10-14T12:46:09;16.70;56.80
49861;DHT22;35761;48.826;9.238;2022-10-14T12:48:47;16.70;57.50
49861;DHT22;35761;48.826;9.238;2022-10-14T12:51:19;16.70;57.90
49861;DHT22;35761;48.826;9.238;2022-10-14T12:54:03;16.70;58.40
49861;DHT22;35761;48.826;9.238;2022-10-14T12:56:37;16.70;58.50
49861;DHT22;35761;48.826;9.238;2022-10-14T12:59:19;16.70;57.30
49861;DHT22;35761;48.826;9.238;2022-10-14T13:01:56;16.70;57.50
49861;DHT22;35761;48.826;9.238;2022-10-14T13:04:27;16.70;57.90
49861;DHT22;35761;48.826;9.238;2022-10-14T13:10:39;16.70;57.20
49861;DHT22;35761;48.826;9.238;2022-10-14T13:13:48;16.80;56.30
49861;DHT22;35761;48.826;9.238;2022-10-14T13:19:40;16.90;55.10
49861;DHT22;35761;48.826;9.238;2022-10-14T13:22:39;17.00;54.10
49861;DHT22;35761;48.826;9.238;2022-10-14T13:25:19;17.00;55.50
49861;DHT22;35761;48.826;9.238;2022-10-14T13:28:02;17.00;56.10
49861;DHT22;35761;48.826;9.238;2022-10-14T13:30:36;17.00;56.20
49861;DHT22;35761;48.826;9.238;2022-10-14T13:33:15;17.00;56.40
49861;DHT22;35761;48.826;9.238;2022-10-14T13:36:00;17.10;54.80
49861;DHT22;35761;48.826;9.238;2022-10-14T13:38:37;17.20;54.00
49861;DHT22;35761;48.826;9.238;2022-10-14T13:41:15;17.10;53.80
49861;DHT22;35761;48.826;9.238;2022-10-14T13:43:58;17.10;53.20
49861;DHT22;35761;48.826;9.238;2022-10-14T13:46:29;17.20;53.40
49861;DHT22;35761;48.826;9.238;2022-10-14T13:49:07;17.10;52.80
49861;DHT22;35761;48.826;9.238;2022-10-14T13:51:49;17.20;53.50
49861;DHT22;35761;48.826;9.238;2022-10-14T13:54:20;17.30;52.90
49861;DHT22;35761;48.826;9.238;2022-10-14T13:56:59;17.20;52.30
49861;DHT22;35761;48.826;9.238;2022-10-14T13:59:49;17.20;52.90
49861;DHT22;35761;48.826;9.238;2022-10-14T14:02:42;17.30;52.20
49861;DHT22;35761;48.826;9.238;2022-10-14T14:05:20;17.30;52.00
49861;DHT22;35761;48.826;9.238;2022-10-14T14:07:51;17.30;51.70
49861;DHT22;35761;48.826;9.238;2022-10-14T14:10:40;17.20;51.80
49861;DHT22;35761;48.826;9.238;2022-10-14T14:13:31;17.20;51.80
49861;DHT22;35761;48.826;9.238;2022-10-14T14:16:02;17.20;52.60
49861;DHT22;35761;48.826;9.238;2022-10-14T14:18:35;17.20;51.00
49861;DHT22;35761;48.826;9.238;2022-10-14T14:21:27;17.10;52.20
49861;DHT22;35761;48.826;9.238;2022-10-14T14:23:59;17.10;53.60
49861;DHT22;35761;48.826;9.238;2022-10-14T14:26:32;17.10;54.20
49861;DHT22;35761;48.826;9.238;2022-10-14T14:29:04;17.10;55.50
49861;DHT22;35761;48.826;9.238;2022-10-14T14:31:33;17.00;58.30
49861;DHT22;35761;48.826;9.238;2022-10-14T14:34:22;16.80;61.40
49861;DHT22;35761;48.826;9.238;2022-10-14T14:36:51;16.60;64.20
49861;DHT22;35761;48.826;9.238;2022-10-14T14:39:30;16.50;66.80
49861;DHT22;35761;48.826;9.238;2022-10-14T14:41:59;16.40;67.70
49861;DHT22;35761;48.826;9.238;2022-10-14T14:44:30;16.30;68.70
49861;DHT22;35761;48.826;9.238;2022-10-14T14:47:02;16.30;68.70
49861;DHT22;35761;48.826;9.238;2022-10-14T14:49:34;16.20;70.40
49861;DHT22;35761;48.826;9.238;2022-10-14T14:52:05;16.20;71.70
49861;DHT22;35761;48.826;9.238;2022-10-14T14:54:43;16.20;70.70
49861;DHT22;35761;48.826;9.238;2022-10-14T14:57:14;16.20;72.00
49861;DHT22;35761;48.826;9.238;2022-10-14T14:59:53;16.20;72.50
49861;DHT22;35761;48.826;9.238;2022-10-14T15:02:26;16.10;73.30
49861;DHT22;35761;48.826;9.238;2022-10-14T15:04:59;16.10;73.70
49861;DHT22;35761;48.826;9.238;2022-10-14T15:07:29;16.20;73.60
49861;DHT22;35761;48.826;9.238;2022-10-14T15:10:00;16.20;73.80
49861;DHT22;35761;48.826;9.238;2022-10-14T15:12:32;16.20;74.00
49861;DHT22;35761;48.826;9.238;2022-10-14T15:15:05;16.20;74.10
49861;DHT22;35761;48.826;9.238;2022-10-14T15:18:08;16.20;74.20
49861;DHT22;35761;48.826;9.238;2022-10-14T15:20:41;16.20;74.00
49861;DHT22;35761;48.826;9.238;2022-10-14T15:23:39;16.20;74.60
49861;DHT22;35761;48.826;9.238;2022-10-14T15:26:28;16.20;73.50
49861;DHT22;35761;48.826;9.238;2022-10-14T15:29:12;16.10;74.00
49861;DHT22;35761;48.826;9.238;2022-10-14T15:31:43;16.10;74.90
49861;DHT22;35761;48.826;9.238;2022-10-14T15:34:17;16.10;75.20
49861;DHT22;35761;48.826;9.238;2022-10-14T15:36:49;16.10;75.30
49861;DHT22;35761;48.826;9.238;2022-10-14T15:39:20;16.10;76.00
49861;DHT22;35761;48.826;9.238;2022-10-14T15:41:50;16.10;76.10
49861;DHT22;35761;48.826;9.238;2022-10-14T15:44:18;16.10;76.50
49861;DHT22;35761;48.826;9.238;2022-10-14T15:46:47;16.10;75.10
49861;DHT22;35761;48.826;9.238;2022-10-14T15:49:41;16.10;74.90
49861;DHT22;35761;48.826;9.238;2022-10-14T15:52:13;16.10;75.10
49861;DHT22;35761;48.826;9.238;2022-10-14T15:54:42;16.10;73.70
49861;DHT22;35761;48.826;9.238;2022-10-14T15:57:14;16.10;73.50
49861;DHT22;35761;48.826;9.238;2022-10-14T15:59:46;16.10;71.50
49861;DHT22;35761;48.826;9.238;2022-10-14T16:02:17;16.10;71.20
49861;DHT22;35761;48.826;9.238;2022-10-14T16:04:48;16.10;70.60
49861;DHT22;35761;48.826;9.238;2022-10-14T16:07:38;16.00;69.50
49861;DHT22;35761;48.826;9.238;2022-10-14T16:10:09;16.00;69.90
49861;DHT22;35761;48.826;9.238;2022-10-14T16:12:41;16.00;69.50
49861;DHT22;35761;48.826;9.238;2022-10-14T16:15:29;16.00;69.60
49861;DHT22;35761;48.826;9.238;2022-10-14T16:18:00;16.00;70.20
49861;DHT22;35761;48.826;9.238;2022-10-14T16:20:29;16.00;69.80
49861;DHT22;35761;48.826;9.238;2022-10-14T16:22:58;15.90;70.70
49861;DHT22;35761;48.826;9.238;2022-10-14T16:25:32;15.90;70.40
49861;DHT22;35761;48.826;9.238;2022-10-14T16:28:06;15.90;70.40
49861;DHT22;35761;48.826;9.238;2022-10-14T16:30:38;15.90;70.70
49861;DHT22;35761;48.826;9.238;2022-10-14T16:33:09;15.80;70.80
49861;DHT22;35761;48.826;9.238;2022-10-14T16:35:43;15.80;70.80
49861;DHT22;35761;48.826;9.238;2022-10-14T16:38:14;15.80;70.30
49861;DHT22;35761;48.826;9.238;2022-10-14T16:40:42;15.80;70.70